createdAt,value
2022-08-22T00:01:48.190Z,27.81
2022-08-22T00:04:23.630Z,27.67
2022-08-22T00:07:21.635Z,27.50
2022-08-22T00:10:04.918Z,27.29
2022-08-22T00:12:45.680Z,27.27
2022-08-22T00:15:43.234Z,27.17
2022-08-22T00:18:29.731Z,27.11
2022-08-22T00:21:05.811Z,27.08
2022-08-22T00:23:45.541Z,26.97
2022-08-22T00:26:20.265Z,26.89
2022-08-22T00:28:51.025Z,26.80
2022-08-22T00:31:40.752Z,26.71
2022-08-22T00:34:31.240Z,26.62
2022-08-22T00:37:28.635Z,26.53
2022-08-22T00:40:23.882Z,26.49
2022-08-22T00:43:04.188Z,26.34
2022-08-22T00:46:08.997Z,26.32
2022-08-22T00:49:06.509Z,26.27
2022-08-22T00:52:25.154Z,26.16
2022-08-22T00:55:25.355Z,25.92
2022-08-22T00:58:33.800Z,25.84
2022-08-22T01:01:10.463Z,25.71
2022-08-22T01:03:50.350Z,25.76
2022-08-22T01:06:37.980Z,25.83
2022-08-22T01:09:33.331Z,25.76
2022-08-22T01:12:19.808Z,25.73
2022-08-22T01:15:01.876Z,25.74
2022-08-22T01:18:03.165Z,25.58
2022-08-22T01:21:12.736Z,25.43
2022-08-22T01:23:51.555Z,25.26
2022-08-22T01:26:50.595Z,25.26
2022-08-22T01:29:40.604Z,25.23
2022-08-22T01:32:29.559Z,25.13
2022-08-22T01:35:06.271Z,25.16
2022-08-22T01:37:52.835Z,25.11
2022-08-22T01:40:35.739Z,24.93
2022-08-22T01:43:11.715Z,24.90
2022-08-22T01:46:03.500Z,24.71
2022-08-22T01:48:39.066Z,24.55
2022-08-22T01:51:11.235Z,24.35
2022-08-22T01:54:11.260Z,24.28
2022-08-22T01:56:47.035Z,24.23
2022-08-22T01:59:32.245Z,24.11
2022-08-22T02:02:40.914Z,24.05
2022-08-22T02:05:23.515Z,24.08
2022-08-22T02:07:57.915Z,24.01
2022-08-22T02:10:29.140Z,23.94
2022-08-22T02:13:03.789Z,23.82
2022-08-22T02:15:41.228Z,23.70
2022-08-22T02:18:29.224Z,23.58
2022-08-22T02:21:17.945Z,23.49
2022-08-22T02:23:58.057Z,23.46
2022-08-22T02:27:05.120Z,23.40
2022-08-22T02:29:54.921Z,23.33
2022-08-22T02:32:32.070Z,23.24
2022-08-22T02:35:40.995Z,23.21
2022-08-22T02:38:26.440Z,23.10
2022-08-22T02:41:22.131Z,22.93
2022-08-22T02:43:50.276Z,22.82
2022-08-22T02:46:43.470Z,22.78
2022-08-22T02:49:27.336Z,22.74
2022-08-22T02:52:25.389Z,22.67
2022-08-22T02:55:14.745Z,22.62
2022-08-22T02:58:05.639Z,22.60
2022-08-22T03:00:46.621Z,22.47
2022-08-22T03:03:26.274Z,22.36
2022-08-22T03:06:01.750Z,22.22
2022-08-22T03:08:55.314Z,22.14
2022-08-22T03:11:31.080Z,22.11
2022-08-22T03:14:16.680Z,22.12
2022-08-22T03:16:47.715Z,22.12
2022-08-22T03:19:45.170Z,22.11
2022-08-22T03:22:42.510Z,22.08
2022-08-22T03:25:44.910Z,21.99
2022-08-22T03:28:24.270Z,21.91
2022-08-22T03:30:52.511Z,21.89
2022-08-22T03:33:24.195Z,21.88
2022-08-22T03:36:12.155Z,21.84
2022-08-22T03:38:50.985Z,21.83
2022-08-22T03:41:40.835Z,21.82
2022-08-22T03:44:44.355Z,21.79
2022-08-22T03:47:30.916Z,21.70
2022-08-22T03:50:13.960Z,21.65
2022-08-22T03:53:18.639Z,21.58
2022-08-22T03:56:15.870Z,21.61
2022-08-22T03:59:02.510Z,21.64
2022-08-22T04:01:49.155Z,21.64
2022-08-22T04:04:44.366Z,21.64
2022-08-22T04:07:44.115Z,21.64
2022-08-22T04:10:37.545Z,21.61
2022-08-22T04:13:18.295Z,21.61
2022-08-22T04:16:23.555Z,21.59
2022-08-22T04:19:20.766Z,21.54
2022-08-22T04:22:10.645Z,21.51
2022-08-22T04:24:52.079Z,21.51
2022-08-22T04:27:41.809Z,21.47
2022-08-22T04:30:39.077Z,21.44
2022-08-22T04:33:22.765Z,21.41
2022-08-22T04:36:55.150Z,21.35
2022-08-22T04:39:40.718Z,21.30
2022-08-22T04:42:32.146Z,21.25
2022-08-22T04:45:11.221Z,21.21
2022-08-22T04:47:55.656Z,21.19
2022-08-22T04:50:38.010Z,21.14
2022-08-22T04:53:19.790Z,21.11
2022-08-22T04:56:07.361Z,21.08
2022-08-22T04:58:56.519Z,21.05
2022-08-22T05:01:39.604Z,21.03
2022-08-22T05:04:12.015Z,21.01
2022-08-22T05:06:45.085Z,20.99
2022-08-22T05:09:19.960Z,20.97
2022-08-22T05:11:53.910Z,20.94
2022-08-22T05:14:32.765Z,20.91
2022-08-22T05:17:03.185Z,20.89
2022-08-22T05:19:38.260Z,20.86
2022-08-22T05:22:20.195Z,20.84
2022-08-22T05:24:53.594Z,20.81
2022-08-22T05:27:34.444Z,20.75
2022-08-22T05:30:14.470Z,20.68
2022-08-22T05:32:59.075Z,20.63
2022-08-22T05:35:39.786Z,20.57
2022-08-22T05:38:13.149Z,20.53
2022-08-22T05:40:44.035Z,20.51
2022-08-22T05:43:13.620Z,20.47
2022-08-22T05:45:47.557Z,20.46
2022-08-22T05:48:31.245Z,20.41
2022-08-22T05:51:10.114Z,20.33
2022-08-22T05:53:47.090Z,20.30
2022-08-22T05:56:20.520Z,20.28
2022-08-22T05:59:24.005Z,20.23
2022-08-22T06:02:19.714Z,20.17
2022-08-22T06:04:55.495Z,20.12
2022-08-22T06:07:32.169Z,20.11
2022-08-22T06:10:22.902Z,20.12
2022-08-22T06:12:54.257Z,20.11
2022-08-22T06:15:26.663Z,20.10
2022-08-22T06:18:08.498Z,20.06
2022-08-22T06:21:01.477Z,20.05
2022-08-22T06:23:36.238Z,20.02
2022-08-22T06:26:06.499Z,19.99
2022-08-22T06:28:54.887Z,19.99
2022-08-22T06:31:38.883Z,19.94
2022-08-22T06:34:14.900Z,19.91
2022-08-22T06:36:48.918Z,19.89
2022-08-22T06:39:32.189Z,19.89
2022-08-22T06:42:16.846Z,19.88
2022-08-22T06:45:09.878Z,19.85
2022-08-22T06:47:43.578Z,19.80
2022-08-22T06:50:31.973Z,19.75
2022-08-22T06:53:24.683Z,19.71
2022-08-22T06:55:57.452Z,19.69
2022-08-22T06:58:34.578Z,19.68
2022-08-22T07:01:32.534Z,19.67
2022-08-22T07:04:10.257Z,19.67
2022-08-22T07:06:42.098Z,19.66
2022-08-22T07:09:30.503Z,19.62
2022-08-22T07:12:03.219Z,19.62
2022-08-22T07:14:46.578Z,19.60
2022-08-22T07:17:25.463Z,19.57
2022-08-22T07:20:05.899Z,19.54
2022-08-22T07:22:38.740Z,19.50
2022-08-22T07:25:14.754Z,19.44
2022-08-22T07:28:15.907Z,19.41
2022-08-22T07:30:44.483Z,19.35
2022-08-22T07:33:36.019Z,19.30
2022-08-22T07:36:37.778Z,19.27
2022-08-22T07:39:26.578Z,19.26
2022-08-22T07:42:08.347Z,19.26
2022-08-22T07:44:59.148Z,19.22
2022-08-22T07:47:38.738Z,19.24
2022-08-22T07:50:13.868Z,19.18
2022-08-22T07:52:46.028Z,19.15
2022-08-22T07:55:24.173Z,19.14
2022-08-22T07:58:04.592Z,19.13
2022-08-22T08:00:34.343Z,19.09
2022-08-22T08:03:10.418Z,19.09
2022-08-22T08:05:42.579Z,19.09
2022-08-22T08:08:40.178Z,19.09
2022-08-22T08:11:13.298Z,19.04
2022-08-22T08:13:48.109Z,18.98
2022-08-22T08:16:25.703Z,18.96
2022-08-22T08:18:58.103Z,18.95
2022-08-22T08:21:36.003Z,18.92
2022-08-22T08:24:08.018Z,18.87
2022-08-22T08:27:02.236Z,18.84
2022-08-22T08:29:32.468Z,18.80
2022-08-22T08:32:03.058Z,18.76
2022-08-22T08:34:35.549Z,18.75
2022-08-22T08:37:26.584Z,18.73
2022-08-22T08:40:05.075Z,18.68
2022-08-22T08:43:14.242Z,18.62
2022-08-22T08:46:10.258Z,18.61
2022-08-22T08:49:06.488Z,18.60
2022-08-22T08:51:57.138Z,18.60
2022-08-22T08:54:37.413Z,18.57
2022-08-22T08:57:30.578Z,18.52
2022-08-22T09:00:15.867Z,18.50
2022-08-22T09:02:57.238Z,18.49
2022-08-22T09:05:46.737Z,18.48
2022-08-22T09:08:38.083Z,18.45
2022-08-22T09:11:18.223Z,18.46
2022-08-22T09:14:23.955Z,18.51
2022-08-22T09:17:16.427Z,18.57
2022-08-22T09:20:17.849Z,18.63
2022-08-22T09:23:12.505Z,18.63
2022-08-22T09:25:47.017Z,18.68
2022-08-22T09:31:48.317Z,18.71
2022-08-22T09:34:28.977Z,18.72
2022-08-22T09:37:09.137Z,18.75
2022-08-22T09:39:49.465Z,18.77
2022-08-22T09:42:56.563Z,18.83
2022-08-22T09:45:56.338Z,18.87
2022-08-22T09:48:54.257Z,18.85
2022-08-22T09:51:33.384Z,18.81
2022-08-22T09:54:14.257Z,18.82
2022-08-22T09:56:48.602Z,18.83
2022-08-22T09:59:22.262Z,18.85
2022-08-22T10:02:15.439Z,18.87
2022-08-22T10:04:59.382Z,18.89
2022-08-22T10:07:39.627Z,18.90
2022-08-22T10:10:22.897Z,18.94
2022-08-22T10:13:25.618Z,19.00
2022-08-22T10:16:02.583Z,18.99
2022-08-22T10:18:44.033Z,19.01
2022-08-22T10:21:36.337Z,19.03
2022-08-22T10:24:27.217Z,19.04
2022-08-22T10:27:02.833Z,19.03
2022-08-22T10:29:37.143Z,19.05
2022-08-22T10:32:14.517Z,19.04
2022-08-22T10:34:52.657Z,19.04
2022-08-22T10:38:02.578Z,19.07
2022-08-22T10:41:09.802Z,19.10
2022-08-22T10:44:01.155Z,19.12
2022-08-22T10:47:01.617Z,19.10
2022-08-22T10:49:36.497Z,19.07
2022-08-22T10:52:15.362Z,19.07
2022-08-22T10:55:01.779Z,19.07
2022-08-22T10:58:08.977Z,19.06
2022-08-22T11:00:50.352Z,19.08
2022-08-22T11:03:28.407Z,19.09
2022-08-22T11:06:02.577Z,19.09
2022-08-22T11:09:05.737Z,19.12
2022-08-22T11:11:45.142Z,19.11
2022-08-22T11:14:44.810Z,19.10
2022-08-22T11:18:03.630Z,19.08
2022-08-22T11:20:54.417Z,19.08
2022-08-22T11:23:28.923Z,19.11
2022-08-22T11:26:33.576Z,19.11
2022-08-22T11:29:41.242Z,19.10
2022-08-22T11:32:45.305Z,19.11
2022-08-22T11:35:28.498Z,19.12
2022-08-22T11:37:59.703Z,19.12
2022-08-22T11:40:49.778Z,19.11
2022-08-22T11:43:55.058Z,19.11
2022-08-22T11:46:29.944Z,19.14
2022-08-22T11:49:25.753Z,19.12
2022-08-22T11:52:13.622Z,19.12
2022-08-22T11:54:57.548Z,19.11
2022-08-22T11:57:39.698Z,19.12
2022-08-22T12:00:27.698Z,19.09
2022-08-22T12:03:01.877Z,19.07
2022-08-22T12:05:37.683Z,19.06
2022-08-22T12:08:21.366Z,19.06
2022-08-22T12:11:07.863Z,19.04
2022-08-22T12:13:41.898Z,19.01
2022-08-22T12:16:15.698Z,19.00
2022-08-22T12:18:52.976Z,18.97
2022-08-22T12:22:00.473Z,18.96
2022-08-22T12:24:50.577Z,18.91
2022-08-22T12:27:36.819Z,18.89
2022-08-22T12:30:46.184Z,18.85
2022-08-22T12:33:39.378Z,18.80
2022-08-22T12:36:22.378Z,18.76
2022-08-22T12:39:25.458Z,18.71
2022-08-22T12:42:35.862Z,18.67
2022-08-22T12:45:35.304Z,18.64
2022-08-22T12:48:08.823Z,18.59
2022-08-22T12:50:54.738Z,18.54
2022-08-22T12:53:35.379Z,18.49
2022-08-22T12:56:18.258Z,18.40
2022-08-22T12:59:08.659Z,18.35
2022-08-22T13:01:43.529Z,18.29
2022-08-22T13:04:34.367Z,18.25
2022-08-22T13:07:23.543Z,18.23
2022-08-22T13:10:00.024Z,18.21
2022-08-22T13:12:36.660Z,18.15
2022-08-22T13:15:55.379Z,18.08
2022-08-22T13:18:32.297Z,18.03
2022-08-22T13:21:11.556Z,17.98
2022-08-22T13:23:48.178Z,17.94
2022-08-22T13:26:32.057Z,17.90
2022-08-22T13:29:25.146Z,17.86
2022-08-22T13:32:02.429Z,17.82
2022-08-22T13:34:55.953Z,17.78
2022-08-22T13:37:45.064Z,17.74
2022-08-22T13:40:33.138Z,17.69
2022-08-22T13:43:12.588Z,17.65
2022-08-22T13:45:51.539Z,17.64
2022-08-22T13:48:24.018Z,17.59
2022-08-22T13:51:05.623Z,17.59
2022-08-22T13:54:02.096Z,17.58
2022-08-22T13:56:47.180Z,17.57
2022-08-22T13:59:50.254Z,17.58
2022-08-22T14:02:43.188Z,17.55
2022-08-22T14:05:29.302Z,17.56
2022-08-22T14:08:25.734Z,17.58
2022-08-22T14:11:01.390Z,17.59
2022-08-22T14:13:51.073Z,17.61
2022-08-22T14:16:35.059Z,17.62
2022-08-22T14:19:13.299Z,17.63
2022-08-22T14:21:59.249Z,17.66
2022-08-22T14:24:55.773Z,17.71
2022-08-22T14:28:01.041Z,17.75
2022-08-22T14:30:37.939Z,17.80
2022-08-22T14:33:19.863Z,17.85
2022-08-22T14:36:00.499Z,17.91
2022-08-22T14:38:37.464Z,17.96
2022-08-22T14:41:57.102Z,18.06
2022-08-22T14:44:46.829Z,18.12
2022-08-22T14:47:55.361Z,18.19
2022-08-22T14:50:53.151Z,18.28
2022-08-22T14:53:30.901Z,18.35
2022-08-22T14:56:29.298Z,18.42
2022-08-22T14:59:14.883Z,18.51
2022-08-22T15:01:59.662Z,18.58
2022-08-22T15:04:38.823Z,18.64
2022-08-22T15:07:09.947Z,18.72
2022-08-22T15:09:44.688Z,18.77
2022-08-22T15:12:35.223Z,18.86
2022-08-22T15:15:09.398Z,18.89
2022-08-22T15:17:40.317Z,18.98
2022-08-22T15:20:27.701Z,19.07
2022-08-22T15:23:01.424Z,19.17
2022-08-22T15:25:32.590Z,19.24
2022-08-22T15:28:20.149Z,19.34
2022-08-22T15:30:59.706Z,19.41
2022-08-22T15:33:35.323Z,19.47
2022-08-22T15:36:24.348Z,19.48
2022-08-22T15:39:14.107Z,19.51
2022-08-22T15:41:47.343Z,19.59
2022-08-22T15:44:32.234Z,19.66
2022-08-22T15:47:11.824Z,19.72
2022-08-22T15:50:03.015Z,19.78
2022-08-22T15:52:59.011Z,19.80
2022-08-22T15:55:34.553Z,19.84
2022-08-22T15:58:21.940Z,19.89
2022-08-22T16:01:18.896Z,19.95
2022-08-22T16:04:13.923Z,20.06
2022-08-22T16:06:54.524Z,20.16
2022-08-22T16:09:44.582Z,20.24
2022-08-22T16:12:53.791Z,20.33
2022-08-22T16:15:55.770Z,20.50
2022-08-22T16:18:43.547Z,20.57
2022-08-22T16:21:19.382Z,20.62
2022-08-22T16:23:59.379Z,20.68
2022-08-22T16:26:40.950Z,20.73
2022-08-22T16:29:17.495Z,20.80
2022-08-22T16:31:49.457Z,20.87
2022-08-22T16:34:21.242Z,20.96
2022-08-22T16:37:10.052Z,21.05
2022-08-22T16:39:48.059Z,21.18
2022-08-22T16:42:25.231Z,21.29
2022-08-22T16:45:16.017Z,21.38
2022-08-22T16:48:36.427Z,21.46
2022-08-22T16:51:13.783Z,21.55
2022-08-22T16:53:45.932Z,21.68
2022-08-22T16:56:23.542Z,21.77
2022-08-22T16:59:19.334Z,21.88
2022-08-22T17:02:08.023Z,21.99
2022-08-22T17:04:56.178Z,22.07
2022-08-22T17:07:47.027Z,22.14
2022-08-22T17:10:43.218Z,22.21
2022-08-22T17:13:26.276Z,22.30
2022-08-22T17:16:16.985Z,22.40
2022-08-22T17:19:03.542Z,22.44
2022-08-22T17:21:59.702Z,22.55
2022-08-22T17:24:42.262Z,22.64
2022-08-22T17:27:32.572Z,22.78
2022-08-22T17:30:14.412Z,22.89
2022-08-22T17:32:59.185Z,22.96
2022-08-22T17:36:01.622Z,23.04
2022-08-22T17:38:39.335Z,23.15
2022-08-22T17:41:30.547Z,23.28
2022-08-22T17:44:22.831Z,23.35
2022-08-22T17:47:01.296Z,23.43
2022-08-22T17:49:47.627Z,23.60
2022-08-22T17:52:27.862Z,23.83
2022-08-22T17:55:03.058Z,23.94
2022-08-22T17:57:37.778Z,24.02
2022-08-22T18:00:36.923Z,24.15
2022-08-22T18:03:23.537Z,24.22
2022-08-22T18:06:05.297Z,24.32
2022-08-22T18:09:15.775Z,24.39
2022-08-22T18:12:03.473Z,24.56
2022-08-22T18:14:45.252Z,24.60
2022-08-22T18:17:36.182Z,24.66
2022-08-22T18:20:29.598Z,24.73
2022-08-22T18:23:36.182Z,24.85
2022-08-22T18:26:21.292Z,25.01
2022-08-22T18:28:55.813Z,25.08
2022-08-22T18:32:07.238Z,25.25
2022-08-22T18:34:45.270Z,25.38
2022-08-22T18:37:24.083Z,25.45
2022-08-22T18:40:02.789Z,25.56
2022-08-22T18:42:56.672Z,25.69
2022-08-22T18:45:49.778Z,25.88
2022-08-22T18:48:28.618Z,26.04
2022-08-22T18:51:24.815Z,26.13
2022-08-22T18:54:06.303Z,26.21
2022-08-22T18:56:56.755Z,26.30
2022-08-22T19:00:01.403Z,26.36
2022-08-22T19:02:58.483Z,26.47
2022-08-22T19:05:35.538Z,26.67
2022-08-22T19:08:12.503Z,26.82
2022-08-22T19:11:09.298Z,26.96
2022-08-22T19:14:23.628Z,27.23
2022-08-22T19:17:17.098Z,27.36
2022-08-22T19:20:15.759Z,27.46
2022-08-22T19:22:44.925Z,27.60
2022-08-22T19:25:29.458Z,27.79
2022-08-22T19:28:10.364Z,27.96
2022-08-22T19:31:16.093Z,28.03
2022-08-22T19:34:11.961Z,28.15
2022-08-22T19:36:40.346Z,28.23
2022-08-22T19:39:13.425Z,28.38
2022-08-22T19:41:48.346Z,28.46
2022-08-22T19:44:19.868Z,28.55
2022-08-22T19:47:05.544Z,28.66
2022-08-22T19:49:41.894Z,28.91
2022-08-22T19:52:24.924Z,29.17
2022-08-22T19:55:27.064Z,29.31
2022-08-22T19:57:58.189Z,29.37
2022-08-22T20:00:49.310Z,29.50
2022-08-22T20:03:20.764Z,29.67
2022-08-22T20:06:43.429Z,29.87
2022-08-22T20:09:43.701Z,29.91
2022-08-22T20:12:23.734Z,29.95
2022-08-22T20:14:53.134Z,30.17
2022-08-22T20:17:27.474Z,30.33
2022-08-22T20:23:05.100Z,30.68
2022-08-22T20:25:54.225Z,30.76
2022-08-22T20:28:48.020Z,30.91
2022-08-22T20:31:26.265Z,30.92
2022-08-22T20:34:01.794Z,30.95
2022-08-22T20:36:31.555Z,31.06
2022-08-22T20:39:06.904Z,31.22
2022-08-22T20:41:44.345Z,31.26
2022-08-22T20:44:20.594Z,31.36
2022-08-22T20:47:06.889Z,31.46
2022-08-22T20:49:51.284Z,31.64
2022-08-22T20:52:39.069Z,31.84
2022-08-22T20:55:16.439Z,32.01
2022-08-22T20:57:50.550Z,32.02
2022-08-22T21:00:25.419Z,31.98
2022-08-22T21:03:10.674Z,32.01
2022-08-22T21:05:41.944Z,32.12
2022-08-22T21:08:15.702Z,32.20
2022-08-22T21:11:01.862Z,32.31
2022-08-22T21:13:38.942Z,32.60
2022-08-22T21:16:19.220Z,32.69
2022-08-22T21:18:50.898Z,32.65
2022-08-22T21:21:32.978Z,32.87
2022-08-22T21:24:05.463Z,32.98
2022-08-22T21:26:39.858Z,32.89
2022-08-22T21:29:14.225Z,32.93
2022-08-22T21:31:59.296Z,32.93
2022-08-22T21:34:42.044Z,33.13
2022-08-22T21:37:27.671Z,33.03
2022-08-22T21:40:21.969Z,33.03
2022-08-22T21:43:01.143Z,32.96
2022-08-22T21:45:43.383Z,32.98
2022-08-22T21:48:39.394Z,33.16
2022-08-22T21:51:27.703Z,33.30
2022-08-22T21:54:26.722Z,33.27
2022-08-22T21:57:28.408Z,33.38
2022-08-22T21:59:59.531Z,33.50
2022-08-22T22:02:36.634Z,33.55
2022-08-22T22:05:12.502Z,33.39
2022-08-22T22:07:43.556Z,33.46
2022-08-22T22:10:14.093Z,33.47
2022-08-22T22:12:45.308Z,33.57
2022-08-22T22:15:18.259Z,33.75
2022-08-22T22:17:46.638Z,33.85
2022-08-22T22:20:17.303Z,33.79
2022-08-22T22:22:46.854Z,33.70
2022-08-22T22:25:40.477Z,33.49
2022-08-22T22:28:22.694Z,33.29
2022-08-22T22:30:54.361Z,33.29
2022-08-22T22:33:29.873Z,33.32
2022-08-22T22:36:02.258Z,33.32
2022-08-22T22:38:30.739Z,33.19
2022-08-22T22:40:58.993Z,33.03
2022-08-22T22:43:27.543Z,33.00
2022-08-22T22:45:56.564Z,32.74
2022-08-22T22:48:25.873Z,32.59
2022-08-22T22:50:55.222Z,32.52
2022-08-22T22:53:33.790Z,32.39
2022-08-22T22:56:09.903Z,32.32
2022-08-22T22:58:39.559Z,31.99
2022-08-22T23:01:18.505Z,31.88
2022-08-22T23:03:48.149Z,31.70
2022-08-22T23:06:21.302Z,31.58
2022-08-22T23:08:50.755Z,31.43
2022-08-22T23:11:28.503Z,31.25
2022-08-22T23:13:57.457Z,31.16
2022-08-22T23:16:29.203Z,30.98
2022-08-22T23:18:57.763Z,30.81
2022-08-22T23:21:29.298Z,30.57
2022-08-22T23:23:59.658Z,30.43
2022-08-22T23:26:29.624Z,30.18
2022-08-22T23:28:58.835Z,30.07
2022-08-22T23:31:40.986Z,29.97
2022-08-22T23:34:12.518Z,29.82
2022-08-22T23:36:46.264Z,29.64
2022-08-22T23:39:17.297Z,29.54
2022-08-22T23:41:46.664Z,29.39
2022-08-22T23:44:17.233Z,29.21
2022-08-22T23:46:46.147Z,29.13
2022-08-22T23:49:15.555Z,29.03
2022-08-22T23:51:45.513Z,28.92
2022-08-22T23:54:14.738Z,28.83
2022-08-22T23:56:50.360Z,28.69
2022-08-22T23:59:22.653Z,28.53
